Time;durP1;ratioP1;P1;durP2;ratioP2;P2;SDS_P1;SDS_P2;PMS_P1;PMS_P2;Temp;Humidity;BMP_temperature;BMP_pressure;BME280_temperature;BME280_humidity;BME280_pressure;Samples;Min_cycle;Max_cycle;Signal;HPM_P1;HPM_P2
2021/01/07 00:03:00;;;;;;;9.60;3.13;;;20.10;41.20;;;;;;6277559;28;20024;-60
2021/01/07 00:06:00;;;;;;;11.93;4.05;;;20.10;41.20;;;;;;6277480;28;20070;-61
2021/01/07 00:09:01;;;;;;;13.23;4.00;;;20.10;41.20;;;;;;6277306;28;20051;-61
2021/01/07 00:12:02;;;;;;;11.70;3.42;;;20.10;41.20;;;;;;6277064;28;20028;-59
2021/01/07 00:15:06;;;;;;;9.10;2.95;;;20.10;41.20;;;;;;6276895;28;20024;-60
2021/01/07 00:18:07;;;;;;;7.37;2.80;;;20.10;41.10;;;;;;6268992;28;20024;-60
2021/01/07 00:21:07;;;;;;;10.90;3.15;;;20.10;41.30;;;;;;6272666;28;20261;-60
2021/01/07 00:24:08;;;;;;;10.50;3.10;;;20.10;41.20;;;;;;6277202;28;20025;-61
2021/01/07 00:27:09;;;;;;;10.23;3.17;;;20.10;41.20;;;;;;6268448;28;20021;-61
2021/01/07 00:30:10;;;;;;;9.73;2.72;;;20.10;41.20;;;;;;6268575;28;20021;-62
2021/01/07 00:33:11;;;;;;;11.15;3.00;;;20.10;41.30;;;;;;6276755;28;20070;-61
2021/01/07 00:36:16;;;;;;;8.95;2.85;;;20.10;41.30;;;;;;6276381;28;20029;-61
2021/01/07 00:39:17;;;;;;;7.65;2.63;;;20.10;41.30;;;;;;6277312;28;20480;-61
2021/01/07 00:42:17;;;;;;;8.93;2.97;;;20.10;41.40;;;;;;6267965;28;20031;-61
2021/01/07 00:45:18;;;;;;;8.38;2.63;;;20.10;41.40;;;;;;6251966;28;20017;-61
2021/01/07 00:48:19;;;;;;;7.28;2.20;;;20.10;41.30;;;;;;6287774;28;20154;-62
2021/01/07 00:51:20;;;;;;;7.35;2.10;;;20.10;41.30;;;;;;6276052;28;20024;-63
2021/01/07 00:54:23;;;;;;;7.68;2.67;;;20.00;41.20;;;;;;6275333;28;20461;-61
2021/01/07 00:57:26;;;;;;;7.03;2.15;;;20.00;41.30;;;;;;6276099;28;20127;-60
2021/01/07 01:00:27;;;;;;;5.03;1.70;;;20.00;41.30;;;;;;6275934;28;20075;-60
2021/01/07 01:03:27;;;;;;;7.22;2.17;;;20.00;41.30;;;;;;6275741;28;20024;-60
2021/01/07 01:06:31;;;;;;;7.97;2.45;;;20.00;41.40;;;;;;6276009;28;20109;-60
2021/01/07 01:09:33;;;;;;;6.07;2.20;;;20.00;41.50;;;;;;6267542;28;20386;-61
2021/01/07 01:12:34;;;;;;;6.90;2.13;;;20.00;41.50;;;;;;6275559;28;20107;-61
2021/01/07 01:15:34;;;;;;;5.85;2.13;;;20.00;41.40;;;;;;6275912;28;20093;-61
2021/01/07 01:18:35;;;;;;;8.13;2.50;;;20.00;41.40;;;;;;6275431;28;20029;-61
2021/01/07 01:21:35;;;;;;;5.30;2.05;;;20.00;41.50;;;;;;6267077;28;20060;-61
2021/01/07 01:24:36;;;;;;;4.65;1.92;;;20.00;41.40;;;;;;6275374;28;20020;-61
2021/01/07 01:27:40;;;;;;;6.97;2.30;;;20.00;41.40;;;;;;6274878;28;20558;-61
2021/01/07 01:30:40;;;;;;;4.55;1.77;;;20.00;41.40;;;;;;6275208;28;20430;-57
2021/01/07 01:33:41;;;;;;;4.75;1.75;;;20.00;41.40;;;;;;6275209;28;20024;-59
2021/01/07 01:36:41;;;;;;;5.35;1.75;;;20.00;41.50;;;;;;6275356;28;20532;-60
2021/01/07 01:39:42;;;;;;;8.18;2.00;;;20.00;41.40;;;;;;6274968;28;20078;-61
2021/01/07 01:42:43;;;;;;;5.30;2.08;;;20.00;41.50;;;;;;6274483;28;20016;-60
2021/01/07 01:45:43;;;;;;;6.45;1.98;;;19.90;41.40;;;;;;6275507;28;20024;-61
2021/01/07 01:48:44;;;;;;;5.95;2.15;;;19.90;41.40;;;;;;6274919;28;20035;-61
2021/01/07 01:51:44;;;;;;;4.60;1.70;;;19.90;41.40;;;;;;6275059;28;20032;-60
2021/01/07 01:54:45;;;;;;;4.55;1.58;;;19.90;41.40;;;;;;6274491;28;20409;-59
2021/01/07 01:57:48;;;;;;;5.63;1.60;;;19.90;41.40;;;;;;6274886;28;20033;-58
2021/01/07 02:00:49;;;;;;;4.25;1.40;;;19.90;42.30;;;;;;6274505;28;20017;-60
2021/01/07 02:03:49;;;;;;;6.25;1.90;;;20.00;41.60;;;;;;6274635;28;20016;-60
2021/01/07 02:06:52;;;;;;;3.80;1.55;;;19.90;41.50;;;;;;6274873;28;20048;-60
2021/01/07 02:09:53;;;;;;;4.75;1.95;;;19.90;41.50;;;;;;6266137;28;20048;-60
2021/01/07 02:12:55;;;;;;;3.35;1.20;;;19.90;41.40;;;;;;6286183;28;20028;-61
2021/01/07 02:15:55;;;;;;;3.13;1.23;;;20.00;41.60;;;;;;6274657;28;20027;-60
2021/01/07 02:18:56;;;;;;;4.68;1.40;;;19.90;41.50;;;;;;6274596;28;20025;-62
2021/01/07 02:22:00;;;;;;;3.65;1.50;;;19.90;41.50;;;;;;6274417;28;20034;-61
2021/01/07 02:25:01;;;;;;;4.70;1.50;;;19.90;41.60;;;;;;6274759;28;20470;-59
2021/01/07 02:28:02;;;;;;;3.97;1.50;;;19.90;41.60;;;;;;6274315;28;20040;-61
2021/01/07 02:31:02;;;;;;;3.35;1.40;;;19.90;41.60;;;;;;6274333;28;20101;-61
2021/01/07 02:34:03;;;;;;;4.03;1.30;;;19.90;41.60;;;;;;6274350;28;20032;-61
2021/01/07 02:37:04;;;;;;;3.40;1.42;;;19.90;41.60;;;;;;6274317;28;20028;-60
2021/01/07 02:40:09;;;;;;;2.78;1.20;;;19.90;41.50;;;;;;6274079;28;20028;-60
2021/01/07 02:43:09;;;;;;;3.35;1.38;;;19.90;41.60;;;;;;6274062;28;20027;-60
2021/01/07 02:46:10;;;;;;;3.00;1.05;;;19.90;41.60;;;;;;6274442;28;20071;-58
2021/01/07 02:49:10;;;;;;;3.97;1.45;;;19.90;41.60;;;;;;6265966;28;20029;-61
2021/01/07 02:52:11;;;;;;;3.65;1.33;;;19.90;41.60;;;;;;6249294;28;20047;-60
2021/01/07 02:55:11;;;;;;;2.20;1.05;;;19.90;41.70;;;;;;6265573;28;20025;-58
2021/01/07 02:58:12;;;;;;;2.10;0.93;;;19.90;41.60;;;;;;6274154;28;20035;-60
2021/01/07 03:01:12;;;;;;;2.47;1.00;;;19.90;41.60;;;;;;6273899;28;20025;-60
2021/01/07 03:04:13;;;;;;;3.00;1.05;;;19.90;41.70;;;;;;6274011;28;20097;-59
2021/01/07 03:07:14;;;;;;;2.72;0.98;;;19.90;41.70;;;;;;6274019;28;20024;-62
2021/01/07 03:10:14;;;;;;;3.00;1.00;;;19.90;41.70;;;;;;6265496;28;20025;-58
2021/01/07 03:13:15;;;;;;;3.10;1.20;;;19.90;41.70;;;;;;6282469;28;20021;-60
2021/01/07 03:16:15;;;;;;;2.05;0.90;;;19.90;41.70;;;;;;6290119;28;20021;-59
2021/01/07 03:19:16;;;;;;;2.63;1.10;;;19.90;41.70;;;;;;6278540;28;20046;-58
2021/01/07 03:22:16;;;;;;;1.73;0.90;;;19.90;41.80;;;;;;6277925;28;20020;-60
2021/01/07 03:25:17;;;;;;;2.85;0.85;;;19.90;41.70;;;;;;6278610;28;20552;-59
2021/01/07 03:28:18;;;;;;;3.22;1.10;;;19.90;41.70;;;;;;6278315;28;20033;-60
2021/01/07 03:31:18;;;;;;;1.95;0.77;;;19.90;41.70;;;;;;6278055;28;20460;-59
2021/01/07 03:34:19;;;;;;;2.40;0.90;;;19.90;41.70;;;;;;6278057;28;20090;-58
2021/01/07 03:37:20;;;;;;;1.52;0.82;;;19.90;41.80;;;;;;6269575;28;20512;-58
2021/01/07 03:40:20;;;;;;;1.77;0.90;;;19.80;41.70;;;;;;6277897;28;20027;-60
2021/01/07 03:43:22;;;;;;;2.25;1.00;;;19.90;41.80;;;;;;6277529;28;20021;-58
2021/01/07 03:46:22;;;;;;;2.15;1.15;;;19.80;41.70;;;;;;6269792;28;20017;-59
2021/01/07 03:49:23;;;;;;;2.35;1.20;;;19.80;41.70;;;;;;6270952;28;20494;-59
2021/01/07 03:52:23;;;;;;;1.27;0.77;;;19.80;41.80;;;;;;6277798;28;20025;-57
2021/01/07 03:55:24;;;;;;;1.45;0.85;;;19.80;41.70;;;;;;6277711;28;20537;-60
2021/01/07 03:58:24;;;;;;;1.23;0.80;;;19.80;41.80;;;;;;6277586;28;20484;-58
2021/01/07 04:01:25;;;;;;;1.95;0.68;;;19.80;41.70;;;;;;6277666;28;20154;-60
2021/01/07 04:04:26;;;;;;;4.45;0.80;;;19.80;41.80;;;;;;6277370;28;20024;-59
2021/01/07 04:07:26;;;;;;;1.30;0.80;;;19.80;41.80;;;;;;6278004;28;20399;-58
2021/01/07 04:10:27;;;;;;;1.95;1.08;;;19.80;41.90;;;;;;6276231;28;20052;-61
2021/01/07 04:13:28;;;;;;;1.58;0.70;;;19.80;41.90;;;;;;6277362;28;20097;-60
2021/01/07 04:16:28;;;;;;;2.20;0.95;;;19.80;41.90;;;;;;6276933;28;20073;-59
2021/01/07 04:19:29;;;;;;;1.50;0.73;;;19.80;42.00;;;;;;6277047;28;20115;-60
2021/01/07 04:22:30;;;;;;;2.55;1.00;;;19.80;41.90;;;;;;6268719;28;20104;-60
2021/01/07 04:25:30;;;;;;;2.40;1.00;;;19.80;41.90;;;;;;6274846;28;20431;-60
2021/01/07 04:28:34;;;;;;;1.80;0.65;;;19.80;41.90;;;;;;6276924;28;20052;-58
2021/01/07 04:31:35;;;;;;;1.30;0.60;;;19.80;41.90;;;;;;6268321;28;20043;-61
2021/01/07 04:34:35;;;;;;;2.25;0.85;;;19.80;41.90;;;;;;6268432;28;20021;-60
2021/01/07 04:37:36;;;;;;;1.42;0.60;;;19.80;41.90;;;;;;6276593;28;20032;-59
2021/01/07 04:40:37;;;;;;;2.13;0.95;;;19.80;41.90;;;;;;6276561;28;20021;-56
2021/01/07 04:43:37;;;;;;;1.77;0.70;;;19.80;41.90;;;;;;6276437;28;20040;-61
2021/01/07 04:46:38;;;;;;;1.25;0.60;;;19.80;42.00;;;;;;6276557;28;20024;-60
2021/01/07 04:49:38;;;;;;;0.90;0.55;;;19.80;41.90;;;;;;6276469;28;20027;-60
2021/01/07 04:52:39;;;;;;;1.83;0.60;;;19.80;42.10;;;;;;6276269;28;20073;-60
2021/01/07 04:55:40;;;;;;;1.05;0.50;;;19.70;42.00;;;;;;6276288;28;20028;-59
2021/01/07 04:58:41;;;;;;;1.08;0.63;;;19.80;42.00;;;;;;6276103;28;20056;-58
2021/01/07 05:01:41;;;;;;;1.33;0.68;;;19.80;42.10;;;;;;6276156;28;20020;-58
2021/01/07 05:04:52;;;;;;;1.33;0.60;;;19.70;41.90;;;;;;6276063;28;20477;-60
2021/01/07 05:07:54;;;;;;;0.98;0.60;;;19.80;42.00;;;;;;6284603;28;20025;-60
2021/01/07 05:10:54;;;;;;;0.85;0.63;;;19.80;41.90;;;;;;6275535;28;20032;-60
2021/01/07 05:14:05;;;;;;;1.15;0.47;;;19.80;41.90;;;;;;6276084;28;20060;-61
2021/01/07 05:17:09;;;;;;;0.75;0.60;;;19.80;41.80;;;;;;6292364;28;20032;-60
2021/01/07 05:20:12;;;;;;;0.93;0.45;;;19.90;42.00;;;;;;6275900;28;20029;-59
2021/01/07 05:23:13;;;;;;;0.75;0.50;;;19.90;42.00;;;;;;6291739;28;20446;-58
2021/01/07 05:26:17;;;;;;;1.73;0.70;;;19.90;42.00;;;;;;6275637;28;20067;-61
2021/01/07 05:29:18;;;;;;;0.75;0.40;;;19.90;42.00;;;;;;6275628;28;20063;-61
2021/01/07 05:32:42;;;;;;;0.88;0.50;;;19.90;42.10;;;;;;6275094;28;20028;-60
2021/01/07 05:35:42;;;;;;;1.20;0.70;;;19.90;42.20;;;;;;6275300;28;20033;-61
2021/01/07 05:38:43;;;;;;;1.30;0.85;;;19.90;42.20;;;;;;6267040;28;20029;-61
2021/01/07 05:41:43;;;;;;;1.33;0.80;;;19.90;42.10;;;;;;6268949;28;20032;-61
2021/01/07 05:44:45;;;;;;;1.30;0.50;;;19.90;42.20;;;;;;6275148;28;20029;-60
2021/01/07 05:47:49;;;;;;;1.48;0.80;;;19.90;42.30;;;;;;6275017;28;20485;-60
2021/01/07 05:50:50;;;;;;;1.20;0.55;;;19.90;42.30;;;;;;6275081;28;20028;-60
2021/01/07 05:53:52;;;;;;;1.13;0.70;;;20.00;42.40;;;;;;6275109;28;20031;-60
2021/01/07 05:56:53;;;;;;;0.63;0.40;;;19.90;42.30;;;;;;6274948;28;20052;-60
2021/01/07 05:59:56;;;;;;;0.82;0.40;;;20.00;42.30;;;;;;6274760;28;20568;-60
2021/01/07 06:03:02;;;;;;;0.70;0.40;;;20.00;42.50;;;;;;6274381;28;20020;-59
2021/01/07 06:06:03;;;;;;;;;;;20.00;42.50;;;;;;6275400;28;20016;-60
2021/01/07 06:09:05;;;;;;;1.10;0.70;;;20.00;42.10;;;;;;6274429;28;19916;-59
2021/01/07 06:12:07;;;;;;;1.45;0.68;;;20.20;41.80;;;;;;6274519;28;20028;-60
2021/01/07 06:15:09;;;;;;;0.70;0.60;;;20.30;41.70;;;;;;6274454;28;20036;-61
2021/01/07 06:18:16;;;;;;;1.40;0.60;;;20.30;41.80;;;;;;6274616;28;20035;-59
2021/01/07 06:21:17;;;;;;;0.85;0.65;;;20.40;41.90;;;;;;6274403;28;20028;-60
2021/01/07 06:24:25;;;;;;;0.95;0.60;;;20.40;41.90;;;;;;6274206;28;20070;-59
2021/01/07 06:27:31;;;;;;;1.17;0.40;;;20.50;42.00;;;;;;6292250;28;20636;-58
2021/01/07 06:30:34;;;;;;;0.43;0.43;;;20.60;42.00;;;;;;6274334;28;20456;-58
2021/01/07 06:33:36;;;;;;;0.90;0.75;;;20.60;42.00;;;;;;6292474;28;20067;-59
2021/01/07 06:36:44;;;;;;;1.23;0.60;;;20.70;42.00;;;;;;6274190;28;20098;-61
2021/01/07 06:39:45;;;;;;;0.70;0.50;;;20.70;42.00;;;;;;6285529;28;20025;-61
2021/01/07 06:42:50;;;;;;;0.80;0.38;;;20.70;42.00;;;;;;6291342;28;20481;-61
2021/01/07 06:45:52;;;;;;;0.93;0.50;;;20.70;42.00;;;;;;6274140;28;20024;-60
2021/01/07 06:48:52;;;;;;;0.40;0.30;;;20.80;41.90;;;;;;6274111;28;20124;-60
2021/01/07 06:51:56;;;;;;;0.82;0.60;;;20.80;41.90;;;;;;6274777;28;20032;-59
2021/01/07 06:54:57;;;;;;;0.95;0.50;;;20.80;41.90;;;;;;6278850;28;20053;-60
2021/01/07 06:57:58;;;;;;;0.77;0.50;;;20.90;42.10;;;;;;6279099;28;20436;-61
2021/01/07 07:01:00;;;;;;;0.70;0.50;;;20.80;41.90;;;;;;6283427;28;20112;-61
2021/01/07 07:04:05;;;;;;;0.75;0.50;;;20.90;41.90;;;;;;6305076;28;20032;-61
2021/01/07 07:07:39;;;;;;;2.53;0.52;;;20.90;42.10;;;;;;6267036;28;20066;-61
2021/01/07 07:10:39;;;;;;;2.55;0.50;;;20.90;41.90;;;;;;6275131;28;20028;-58
2021/01/07 07:13:42;;;;;;;2.33;0.43;;;21.00;41.90;;;;;;6293352;28;20046;-60
2021/01/07 07:16:43;;;;;;;2.15;0.50;;;21.10;41.80;;;;;;6272817;28;20088;-60
2021/01/07 07:19:46;;;;;;;0.63;0.50;;;21.20;41.80;;;;;;6284049;28;20029;-61
2021/01/07 07:22:46;;;;;;;2.30;0.60;;;21.20;41.70;;;;;;6262312;28;20083;-59
2021/01/07 07:25:55;;;;;;;2.30;0.52;;;21.20;41.70;;;;;;6278871;28;20029;-61
2021/01/07 07:28:56;;;;;;;0.32;0.30;;;21.30;41.80;;;;;;6273443;28;20044;-59
2021/01/07 07:31:58;;;;;;;3.30;0.30;;;21.30;41.80;;;;;;6278746;28;20048;-61
2021/01/07 07:34:58;;;;;;;1.25;0.50;;;21.30;41.90;;;;;;6278426;28;20488;-61
2021/01/07 07:37:59;;;;;;;1.58;0.50;;;21.30;41.80;;;;;;6278297;28;20071;-61
2021/01/07 07:41:10;;;;;;;1.52;0.70;;;21.40;41.90;;;;;;6278506;28;20062;-61
2021/01/07 07:44:13;;;;;;;0.90;0.55;;;21.40;41.80;;;;;;6278264;28;20151;-62
2021/01/07 07:47:14;;;;;;;1.52;0.50;;;21.40;41.90;;;;;;6278201;28;20025;-57
2021/01/07 07:50:24;;;;;;;1.00;0.50;;;21.40;41.90;;;;;;6277939;28;20067;-62
2021/01/07 07:53:24;;;;;;;1.30;0.47;;;21.40;42.00;;;;;;6278613;28;20020;-60
2021/01/07 07:56:25;;;;;;;0.95;0.50;;;21.50;41.80;;;;;;6277419;28;20047;-61
2021/01/07 07:59:26;;;;;;;0.43;0.40;;;21.50;41.90;;;;;;6277494;28;20116;-62
2021/01/07 08:02:27;;;;;;;0.98;0.50;;;21.50;41.70;;;;;;6276403;28;20047;-60
2021/01/07 08:05:29;;;;;;;0.60;0.30;;;21.50;41.80;;;;;;6295459;28;20456;-58
2021/01/07 08:08:31;;;;;;;4.07;0.50;;;21.50;41.80;;;;;;6302715;28;20027;-60
2021/01/07 08:11:40;;;;;;;0.88;0.60;;;21.50;41.90;;;;;;6276065;28;20059;-63
2021/01/07 08:14:41;;;;;;;0.77;0.40;;;21.50;41.70;;;;;;6274770;28;20042;-63
2021/01/07 08:17:41;;;;;;;1.77;0.50;;;21.50;41.90;;;;;;6276965;28;20081;-62
2021/01/07 08:20:42;;;;;;;0.55;0.50;;;21.50;41.80;;;;;;6277552;28;20025;-62
2021/01/07 08:23:43;;;;;;;0.40;0.40;;;21.50;41.80;;;;;;6294753;28;20121;-60
2021/01/07 08:26:52;;;;;;;1.30;0.40;;;21.50;42.00;;;;;;6277053;28;20500;-62
2021/01/07 08:29:57;;;;;;;0.63;0.40;;;21.50;42.70;;;;;;6276945;28;20107;-62
2021/01/07 08:33:00;;;;;;;0.60;0.47;;;21.50;41.90;;;;;;6276700;28;20060;-61
2021/01/07 08:36:07;;;;;;;0.57;0.40;;;21.50;41.80;;;;;;6276566;28;20020;-61
2021/01/07 08:39:13;;;;;;;0.50;0.38;;;21.50;41.90;;;;;;6276474;28;20473;-60
2021/01/07 08:42:14;;;;;;;0.30;0.30;;;21.50;41.90;;;;;;6277005;28;20357;-62
2021/01/07 08:45:15;;;;;;;0.73;0.40;;;21.50;41.80;;;;;;6271758;28;20861;-59
2021/01/07 08:48:21;;;;;;;2.60;1.77;;;21.40;42.00;;;;;;6293017;28;20037;-62
2021/01/07 08:51:22;;;;;;;2.30;1.20;;;21.10;39.10;;;;;;6275580;28;20477;-62
2021/01/07 08:54:23;;;;;;;2.70;1.35;;;21.20;39.80;;;;;;6276415;28;20039;-60
2021/01/07 08:57:23;;;;;;;4.60;1.17;;;21.30;39.00;;;;;;6276133;28;20028;-61
2021/01/07 09:00:25;;;;;;;3.35;1.00;;;21.40;39.10;;;;;;6275133;28;20460;-60
2021/01/07 09:03:35;;;;;;;0.88;0.70;;;21.40;38.60;;;;;;6275420;28;20358;-61
2021/01/07 09:06:35;;;;;;;0.70;0.63;;;21.50;39.20;;;;;;6276196;28;20032;-60
2021/01/07 09:09:49;;;;;;;0.90;0.57;;;21.50;39.60;;;;;;6267872;28;20545;-62
2021/01/07 09:12:50;;;;;;;1.02;0.60;;;21.50;39.30;;;;;;6275861;28;20484;-58
2021/01/07 09:15:51;;;;;;;0.95;0.60;;;21.50;39.60;;;;;;6274802;28;20032;-57
2021/01/07 09:19:06;;;;;;;0.82;0.50;;;21.60;39.50;;;;;;6276593;28;20028;-61
2021/01/07 09:22:07;;;;;;;;;;;21.60;39.80;;;;;;6281549;28;20116;-60
2021/01/07 09:25:09;;;;;;;2.08;0.75;;;21.60;39.70;;;;;;6261406;28;20582;-60
2021/01/07 09:28:10;;;;;;;1.02;0.50;;;21.60;39.70;;;;;;6275195;28;20036;-62
2021/01/07 09:31:10;;;;;;;0.60;0.40;;;21.60;39.80;;;;;;6276061;28;20055;-61
2021/01/07 09:34:10;;;;;;;1.10;0.70;;;21.60;40.00;;;;;;6275501;28;20357;-60
2021/01/07 09:37:17;;;;;;;1.10;0.47;;;21.60;40.30;;;;;;6275228;28;20158;-60
2021/01/07 09:40:17;;;;;;;1.75;0.45;;;21.70;40.20;;;;;;6266760;28;20040;-62
2021/01/07 09:43:18;;;;;;;2.40;0.60;;;21.70;40.30;;;;;;6275325;28;20021;-62
2021/01/07 09:46:18;;;;;;;1.23;0.45;;;21.70;40.30;;;;;;6274880;28;20028;-62
2021/01/07 09:49:19;;;;;;;1.20;0.57;;;21.70;40.50;;;;;;6275502;28;20111;-61
2021/01/07 09:52:20;;;;;;;1.20;0.68;;;21.70;40.50;;;;;;6274987;28;20389;-62
2021/01/07 09:55:20;;;;;;;0.50;0.50;;;21.70;40.80;;;;;;6290539;28;20021;-62
2021/01/07 09:58:21;;;;;;;0.75;0.50;;;21.60;41.00;;;;;;6274769;28;20532;-62
2021/01/07 10:01:21;;;;;;;0.73;0.50;;;21.60;41.20;;;;;;6266062;28;20021;-61
2021/01/07 10:04:22;;;;;;;0.75;0.52;;;21.60;41.20;;;;;;6274169;28;20028;-61
2021/01/07 10:07:23;;;;;;;0.80;0.40;;;21.60;41.40;;;;;;6273914;28;20107;-62
2021/01/07 10:10:23;;;;;;;0.40;0.40;;;21.60;41.40;;;;;;6274737;28;20465;-61
2021/01/07 10:13:24;;;;;;;0.38;0.30;;;21.60;41.50;;;;;;6274800;28;20056;-62
2021/01/07 10:16:24;;;;;;;0.73;0.50;;;21.60;41.50;;;;;;6275071;28;20016;-57
2021/01/07 10:19:28;;;;;;;0.50;0.47;;;21.60;41.40;;;;;;6274834;28;20039;-58
2021/01/07 10:22:30;;;;;;;0.70;0.40;;;21.60;41.40;;;;;;6274064;28;20048;-62
2021/01/07 10:25:32;;;;;;;0.70;0.55;;;21.60;41.50;;;;;;6274024;28;20107;-59
2021/01/07 10:28:33;;;;;;;0.50;0.40;;;21.60;41.80;;;;;;6273699;28;20087;-61
2021/01/07 10:31:34;;;;;;;0.82;0.55;;;21.60;41.60;;;;;;6267147;28;20025;-62
2021/01/07 10:34:38;;;;;;;1.13;0.55;;;21.60;41.80;;;;;;6289135;28;20033;-60
2021/01/07 10:37:39;;;;;;;1.42;0.43;;;21.60;41.70;;;;;;6274339;28;20028;-59
2021/01/07 10:40:47;;;;;;;1.85;0.70;;;21.70;41.20;;;;;;6273252;28;20078;-58
2021/01/07 10:43:48;;;;;;;1.75;0.40;;;21.90;40.90;;;;;;6273570;28;20116;-58
2021/01/07 10:46:54;;;;;;;1.98;0.70;;;22.00;40.80;;;;;;6267546;28;20305;-61
2021/01/07 10:50:01;;;;;;;2.92;0.68;;;21.90;41.30;;;;;;6289111;28;20048;-59
2021/01/07 10:53:15;;;;;;;1.13;0.65;;;22.00;40.70;;;;;;6290481;28;20426;-56
2021/01/07 10:56:36;;;;;;;9.85;0.80;;;22.10;40.60;;;;;;6274695;28;20231;-57
2021/01/07 10:59:52;;;;;;;15.50;1.08;;;22.10;41.60;;;;;;6273236;28;20028;-61
2021/01/07 11:03:00;;;;;;;1.83;0.70;;;22.20;40.80;;;;;;6277934;28;20016;-61
2021/01/07 11:06:02;;;;;;;2.88;0.70;;;22.40;39.90;;;;;;6272923;28;20028;-61
2021/01/07 11:09:04;;;;;;;3.22;0.77;;;22.60;39.50;;;;;;6291711;28;20024;-61
2021/01/07 11:12:27;;;;;;;5.72;0.93;;;22.50;39.70;;;;;;6265302;28;20482;-66
2021/01/07 11:15:28;;;;;;;2.65;0.70;;;22.60;39.50;;;;;;6271952;28;20013;-61
2021/01/07 11:18:32;;;;;;;16.25;1.70;;;22.60;39.20;;;;;;6273557;28;20078;-59
2021/01/07 11:21:45;;;;;;;4.85;1.20;;;22.50;39.70;;;;;;6273724;28;20431;-61
2021/01/07 11:24:48;;;;;;;8.05;1.30;;;22.50;40.00;;;;;;6270725;28;20035;-61
2021/01/07 11:27:51;;;;;;;5.20;1.00;;;22.60;39.70;;;;;;6291427;28;20039;-61
2021/01/07 11:30:52;;;;;;;4.95;0.70;;;22.70;39.70;;;;;;6273941;28;20020;-64
2021/01/07 11:33:54;;;;;;;2.63;1.13;;;22.50;39.60;;;;;;6273972;28;20082;-62
2021/01/07 11:37:10;;;;;;;8.20;0.90;;;22.50;39.80;;;;;;6264604;28;20501;-53
2021/01/07 11:40:19;;;;;;;7.93;1.08;;;22.50;39.50;;;;;;6278070;28;20484;-60
2021/01/07 11:43:49;;;;;;;5.45;1.00;;;22.50;39.30;;;;;;6277378;28;20505;-64
2021/01/07 11:46:52;;;;;;;10.95;1.10;;;22.60;39.40;;;;;;6277218;28;20021;-58
2021/01/07 11:49:54;;;;;;;12.05;1.58;;;22.50;38.80;;;;;;6289260;28;20029;-57
2021/01/07 11:52:55;;;;;;;14.73;1.17;;;22.30;38.60;;;;;;6276692;28;20021;-56
2021/01/07 11:55:57;;;;;;;6.80;1.35;;;22.30;39.10;;;;;;6294139;28;20110;-57
2021/01/07 11:59:01;;;;;;;4.70;1.00;;;22.30;39.10;;;;;;6277718;28;20020;-59
2021/01/07 12:02:09;;;;;;;6.40;1.02;;;22.20;39.20;;;;;;6266138;28;20017;-56
2021/01/07 12:05:12;;;;;;;2.58;1.08;;;22.10;39.50;;;;;;6277366;28;20074;-59
2021/01/07 12:08:32;;;;;;;5.68;1.00;;;22.00;39.90;;;;;;6277190;28;20031;-61
2021/01/07 12:11:36;;;;;;;1.67;0.75;;;22.00;39.70;;;;;;6286043;28;20036;-61
2021/01/07 12:14:48;;;;;;;1.35;0.80;;;22.00;39.90;;;;;;6275943;28;20028;-61
2021/01/07 12:17:49;;;;;;;1.45;0.95;;;22.00;39.90;;;;;;6269350;28;20458;-60
2021/01/07 12:20:50;;;;;;;2.97;0.88;;;21.90;39.90;;;;;;6276039;28;20055;-58
2021/01/07 12:23:52;;;;;;;3.90;0.95;;;21.90;40.00;;;;;;6269489;28;20397;-60
2021/01/07 12:26:53;;;;;;;3.17;0.90;;;21.90;40.00;;;;;;6271088;28;20025;-58
2021/01/07 12:29:54;;;;;;;1.95;0.93;;;21.90;40.10;;;;;;6293350;28;20044;-61
2021/01/07 12:33:26;;;;;;;3.05;0.70;;;22.00;40.00;;;;;;6268332;28;20028;-60
2021/01/07 12:36:32;;;;;;;1.52;0.85;;;21.90;39.90;;;;;;6276219;28;20064;-60
2021/01/07 12:39:45;;;;;;;2.10;1.02;;;22.00;40.20;;;;;;6276629;28;20768;-55
2021/01/07 12:43:04;;;;;;;2.95;1.05;;;22.10;39.90;;;;;;6269046;28;20025;-60
2021/01/07 12:46:06;;;;;;;1.13;0.90;;;22.00;39.80;;;;;;6276663;28;20094;-59
2021/01/07 12:49:07;;;;;;;1.73;1.10;;;22.00;40.10;;;;;;6276519;28;20051;-54
2021/01/07 12:52:09;;;;;;;1.00;0.73;;;22.00;40.10;;;;;;6292337;28;20503;-61
2021/01/07 12:55:10;;;;;;;1.00;0.80;;;22.10;40.10;;;;;;6299505;28;20027;-55
2021/01/07 12:58:18;;;;;;;1.92;0.80;;;22.10;40.10;;;;;;6289719;28;20614;-59
2021/01/07 13:01:26;;;;;;;1.92;0.98;;;22.10;40.00;;;;;;6282135;28;20416;-60
2021/01/07 13:04:53;;;;;;;2.15;0.90;;;22.00;40.10;;;;;;6275743;28;20135;-60
2021/01/07 13:07:58;;;;;;;1.98;0.90;;;22.00;40.40;;;;;;6276322;28;20031;-60
2021/01/07 13:10:59;;;;;;;;;;;22.00;40.20;;;;;;6276091;28;20115;-59
2021/01/07 13:14:01;;;;;;;1.20;0.80;;;21.90;40.30;;;;;;6276259;28;20014;-60
2021/01/07 13:17:01;;;;;;;0.93;0.73;;;21.90;40.50;;;;;;6275454;28;20024;-59
2021/01/07 13:20:04;;;;;;;1.83;0.70;;;22.00;40.30;;;;;;6293893;28;20063;-60
2021/01/07 13:23:05;;;;;;;1.58;0.77;;;22.00;40.30;;;;;;6275449;28;20032;-58
2021/01/07 13:26:06;;;;;;;1.05;0.70;;;22.00;40.50;;;;;;6275391;28;20024;-60
2021/01/07 13:29:09;;;;;;;1.52;0.90;;;22.00;40.30;;;;;;6268023;28;20040;-59
2021/01/07 13:32:09;;;;;;;1.77;0.80;;;21.90;40.40;;;;;;6275320;28;20029;-60
2021/01/07 13:35:12;;;;;;;0.70;0.50;;;22.00;40.50;;;;;;6275459;28;20028;-60
2021/01/07 13:38:13;;;;;;;1.17;0.80;;;22.00;40.60;;;;;;6274899;28;20029;-60
2021/01/07 13:41:17;;;;;;;1.42;0.90;;;22.00;40.40;;;;;;6275660;28;20481;-59
2021/01/07 13:44:19;;;;;;;1.27;0.90;;;22.00;40.60;;;;;;6275150;28;20552;-60
2021/01/07 13:47:21;;;;;;;1.30;0.93;;;22.00;40.60;;;;;;6267132;28;20023;-60
2021/01/07 13:50:23;;;;;;;1.60;0.80;;;22.00;40.60;;;;;;6283618;28;20029;-61
2021/01/07 13:53:24;;;;;;;1.05;0.70;;;22.00;40.50;;;;;;6275232;28;20052;-57
2021/01/07 13:56:28;;;;;;;1.38;0.77;;;22.00;40.70;;;;;;6274912;28;20120;-58
2021/01/07 13:59:29;;;;;;;0.68;0.63;;;22.00;40.60;;;;;;6266751;28;20021;-60
2021/01/07 14:02:30;;;;;;;1.73;1.00;;;22.00;40.60;;;;;;6274130;28;20106;-55
2021/01/07 14:05:33;;;;;;;0.80;0.60;;;22.00;40.60;;;;;;6278559;28;20024;-59
2021/01/07 14:08:37;;;;;;;0.98;0.73;;;22.00;40.70;;;;;;6275084;28;20025;-59
2021/01/07 14:11:39;;;;;;;0.85;0.60;;;22.00;40.50;;;;;;6274824;28;20033;-55
2021/01/07 14:14:41;;;;;;;1.45;0.80;;;22.00;40.60;;;;;;6283601;28;20032;-58
2021/01/07 14:17:46;;;;;;;1.48;0.60;;;22.00;40.50;;;;;;6274733;28;20032;-60
2021/01/07 14:20:47;;;;;;;0.77;0.68;;;22.00;40.60;;;;;;6274503;28;20492;-60
2021/01/07 14:23:47;;;;;;;1.55;0.75;;;22.00;40.40;;;;;;6274397;28;20027;-59
2021/01/07 14:27:17;;;;;;;0.65;0.65;;;21.90;40.40;;;;;;6274305;28;20055;-57
2021/01/07 14:30:20;;;;;;;1.20;0.73;;;21.90;40.40;;;;;;6274632;28;20761;-60
2021/01/07 14:33:23;;;;;;;1.77;0.70;;;21.90;40.70;;;;;;6274881;28;20086;-56
2021/01/07 14:36:24;;;;;;;1.70;0.68;;;22.00;40.60;;;;;;6291987;28;20028;-59
2021/01/07 14:39:25;;;;;;;0.93;0.50;;;22.00;40.50;;;;;;6274154;28;20523;-58
2021/01/07 14:42:26;;;;;;;0.88;0.70;;;22.10;40.50;;;;;;6273890;28;20033;-57
2021/01/07 14:45:28;;;;;;;0.88;0.60;;;22.00;40.70;;;;;;6273932;28;20016;-56
2021/01/07 14:48:33;;;;;;;1.05;0.68;;;22.00;40.70;;;;;;6273638;28;20024;-55
2021/01/07 14:51:34;;;;;;;;;;;22.00;40.70;;;;;;6269423;28;20101;-59
2021/01/07 14:54:37;;;;;;;0.90;0.77;;;22.00;40.60;;;;;;6274516;28;19905;-60
2021/01/07 14:57:45;;;;;;;1.17;0.70;;;22.00;40.60;;;;;;6274066;28;20021;-57
2021/01/07 15:00:54;;;;;;;1.00;0.70;;;22.00;40.60;;;;;;6275405;28;20036;-60
2021/01/07 15:03:57;;;;;;;0.85;0.70;;;22.00;40.50;;;;;;6290690;28;20017;-60
2021/01/07 15:07:26;;;;;;;0.95;0.70;;;22.00;40.40;;;;;;6273752;28;20096;-59
2021/01/07 15:10:28;;;;;;;0.50;0.50;;;22.00;40.70;;;;;;6252321;28;20033;-59
2021/01/07 15:13:38;;;;;;;0.50;0.50;;;22.00;40.50;;;;;;6275797;28;20078;-60
2021/01/07 15:16:44;;;;;;;1.45;0.80;;;22.00;40.60;;;;;;6278639;28;20032;-61
2021/01/07 15:19:46;;;;;;;1.13;0.80;;;22.10;40.50;;;;;;6278497;28;20074;-57
2021/01/07 15:23:14;;;;;;;3.58;0.82;;;22.00;40.60;;;;;;6278705;28;20440;-61
2021/01/07 15:26:24;;;;;;;5.88;0.80;;;22.00;40.50;;;;;;6277011;28;20028;-61
2021/01/07 15:29:44;;;;;;;4.43;1.50;;;22.00;40.50;;;;;;6276701;28;20355;-60
2021/01/07 15:32:56;;;;;;;9.90;1.70;;;21.70;40.30;;;;;;6287771;28;20037;-61
2021/01/07 15:36:01;;;;;;;6.57;1.30;;;21.90;40.00;;;;;;6258561;28;20481;-56
2021/01/07 15:39:17;;;;;;;;;;;22.00;40.70;;;;;;6285742;28;20028;-63
2021/01/07 15:42:27;;;;;;;;;;;22.00;40.90;;;;;;6276222;28;19904;-64
2021/01/07 15:45:40;;;;;;;30.15;1.65;;;22.00;40.60;;;;;;6288284;28;19966;-62
2021/01/07 15:49:07;;;;;;;10.57;2.13;;;22.00;41.00;;;;;;6276355;28;20120;-62
2021/01/07 15:52:41;;;;;;;10.32;1.25;;;22.10;39.70;;;;;;6277769;28;20025;-68
2021/01/07 15:55:59;;;;;;;5.82;2.05;;;22.10;40.10;;;;;;6278866;28;20107;-66
2021/01/07 15:59:28;;;;;;;7.35;1.15;;;22.20;40.30;;;;;;6277683;28;20031;-68